sensor_id;sensor_type;location;lat;lon;timestamp;temperature;humidity
16503;DHT22;53067;48.114;11.694;2023-03-01T00:01:20;3.70;70.80
16503;DHT22;53067;48.114;11.694;2023-03-01T00:03:48;3.70;70.90
16503;DHT22;53067;48.114;11.694;2023-03-01T00:06:17;3.70;71.00
16503;DHT22;53067;48.114;11.694;2023-03-01T00:08:45;3.70;71.00
16503;DHT22;53067;48.114;11.694;2023-03-01T00:13:44;3.60;70.90
16503;DHT22;53067;48.114;11.694;2023-03-01T00:16:18;3.60;70.90
16503;DHT22;53067;48.114;11.694;2023-03-01T00:18:46;3.60;71.00
16503;DHT22;53067;48.114;11.694;2023-03-01T00:21:13;3.60;70.80
16503;DHT22;53067;48.114;11.694;2023-03-01T00:23:41;3.60;70.90
16503;DHT22;53067;48.114;11.694;2023-03-01T00:26:20;3.60;71.10
16503;DHT22;53067;48.114;11.694;2023-03-01T00:28:48;3.60;71.10
16503;DHT22;53067;48.114;11.694;2023-03-01T00:31:18;3.60;70.70
16503;DHT22;53067;48.114;11.694;2023-03-01T00:33:46;3.60;70.70
16503;DHT22;53067;48.114;11.694;2023-03-01T00:36:15;3.60;70.90
16503;DHT22;53067;48.114;11.694;2023-03-01T00:38:44;3.60;71.00
16503;DHT22;53067;48.114;11.694;2023-03-01T00:41:14;3.60;70.90
16503;DHT22;53067;48.114;11.694;2023-03-01T00:43:43;3.60;71.10
16503;DHT22;53067;48.114;11.694;2023-03-01T00:46:13;3.70;70.90
16503;DHT22;53067;48.114;11.694;2023-03-01T00:48:42;3.70;70.90
16503;DHT22;53067;48.114;11.694;2023-03-01T00:51:18;3.70;71.00
16503;DHT22;53067;48.114;11.694;2023-03-01T00:53:51;3.70;71.10
16503;DHT22;53067;48.114;11.694;2023-03-01T00:56:20;3.70;70.80
16503;DHT22;53067;48.114;11.694;2023-03-01T00:58:47;3.70;71.20
16503;DHT22;53067;48.114;11.694;2023-03-01T01:01:17;3.70;71.20
16503;DHT22;53067;48.114;11.694;2023-03-01T01:03:52;3.70;71.10
16503;DHT22;53067;48.114;11.694;2023-03-01T01:06:20;3.60;71.10
16503;DHT22;53067;48.114;11.694;2023-03-01T01:08:48;3.70;71.30
16503;DHT22;53067;48.114;11.694;2023-03-01T01:11:17;3.60;71.30
16503;DHT22;53067;48.114;11.694;2023-03-01T01:13:47;3.60;71.90
16503;DHT22;53067;48.114;11.694;2023-03-01T01:16:16;3.60;71.20
16503;DHT22;53067;48.114;11.694;2023-03-01T01:18:44;3.60;71.40
16503;DHT22;53067;48.114;11.694;2023-03-01T01:21:15;3.60;71.50
16503;DHT22;53067;48.114;11.694;2023-03-01T01:23:44;3.60;71.40
16503;DHT22;53067;48.114;11.694;2023-03-01T01:26:19;3.60;71.40
16503;DHT22;53067;48.114;11.694;2023-03-01T01:28:47;3.60;71.10
16503;DHT22;53067;48.114;11.694;2023-03-01T01:31:15;3.50;71.10
16503;DHT22;53067;48.114;11.694;2023-03-01T01:33:43;3.60;71.20
16503;DHT22;53067;48.114;11.694;2023-03-01T01:36:11;3.90;71.40
16503;DHT22;53067;48.114;11.694;2023-03-01T01:38:39;3.60;71.20
16503;DHT22;53067;48.114;11.694;2023-03-01T01:41:09;3.50;71.10
16503;DHT22;53067;48.114;11.694;2023-03-01T01:44:08;3.50;71.10
16503;DHT22;53067;48.114;11.694;2023-03-01T01:48:54;3.50;71.00
16503;DHT22;53067;48.114;11.694;2023-03-01T01:51:20;3.50;71.80
16503;DHT22;53067;48.114;11.694;2023-03-01T01:53:51;3.50;71.10
16503;DHT22;53067;48.114;11.694;2023-03-01T01:56:19;3.50;71.10
16503;DHT22;53067;48.114;11.694;2023-03-01T01:58:47;3.50;71.10
16503;DHT22;53067;48.114;11.694;2023-03-01T02:01:15;3.50;70.80
16503;DHT22;53067;48.114;11.694;2023-03-01T02:03:45;3.50;71.10
16503;DHT22;53067;48.114;11.694;2023-03-01T02:06:32;3.50;71.00
16503;DHT22;53067;48.114;11.694;2023-03-01T02:09:03;3.40;70.70
16503;DHT22;53067;48.114;11.694;2023-03-01T02:11:31;3.40;70.80
16503;DHT22;53067;48.114;11.694;2023-03-01T02:14:00;3.40;70.70
16503;DHT22;53067;48.114;11.694;2023-03-01T02:16:28;3.40;70.50
16503;DHT22;53067;48.114;11.694;2023-03-01T02:18:55;3.40;70.70
16503;DHT22;53067;48.114;11.694;2023-03-01T02:24:10;3.40;70.60
16503;DHT22;53067;48.114;11.694;2023-03-01T02:26:42;3.40;70.50
16503;DHT22;53067;48.114;11.694;2023-03-01T02:29:10;3.40;70.50
16503;DHT22;53067;48.114;11.694;2023-03-01T02:31:37;3.40;70.50
16503;DHT22;53067;48.114;11.694;2023-03-01T02:34:14;3.40;70.40
16503;DHT22;53067;48.114;11.694;2023-03-01T02:36:51;3.40;70.40
16503;DHT22;53067;48.114;11.694;2023-03-01T02:39:17;3.30;70.40
16503;DHT22;53067;48.114;11.694;2023-03-01T02:41:51;3.30;70.60
16503;DHT22;53067;48.114;11.694;2023-03-01T02:44:20;3.30;70.40
16503;DHT22;53067;48.114;11.694;2023-03-01T02:46:50;3.30;70.40
16503;DHT22;53067;48.114;11.694;2023-03-01T02:49:21;3.30;70.50
16503;DHT22;53067;48.114;11.694;2023-03-01T02:52:01;3.30;70.50
16503;DHT22;53067;48.114;11.694;2023-03-01T02:54:31;3.30;70.40
16503;DHT22;53067;48.114;11.694;2023-03-01T02:56:59;3.30;70.20
16503;DHT22;53067;48.114;11.694;2023-03-01T02:59:30;3.20;70.20
16503;DHT22;53067;48.114;11.694;2023-03-01T03:02:00;3.20;70.10
16503;DHT22;53067;48.114;11.694;2023-03-01T03:04:27;3.20;70.10
16503;DHT22;53067;48.114;11.694;2023-03-01T03:06:55;3.20;71.00
16503;DHT22;53067;48.114;11.694;2023-03-01T03:09:22;3.20;70.40
16503;DHT22;53067;48.114;11.694;2023-03-01T03:11:50;3.20;70.40
16503;DHT22;53067;48.114;11.694;2023-03-01T03:14:18;3.20;70.50
16503;DHT22;53067;48.114;11.694;2023-03-01T03:16:48;3.30;70.30
16503;DHT22;53067;48.114;11.694;2023-03-01T03:19:18;3.30;70.20
16503;DHT22;53067;48.114;11.694;2023-03-01T03:24:35;3.20;70.10
16503;DHT22;53067;48.114;11.694;2023-03-01T03:27:05;3.20;70.30
16503;DHT22;53067;48.114;11.694;2023-03-01T03:29:33;3.20;70.10
16503;DHT22;53067;48.114;11.694;2023-03-01T03:32:00;3.20;70.00
16503;DHT22;53067;48.114;11.694;2023-03-01T03:34:28;3.20;70.00
16503;DHT22;53067;48.114;11.694;2023-03-01T03:36:57;3.20;69.70
16503;DHT22;53067;48.114;11.694;2023-03-01T03:39:26;3.10;70.00
16503;DHT22;53067;48.114;11.694;2023-03-01T03:41:55;3.10;70.00
16503;DHT22;53067;48.114;11.694;2023-03-01T03:44:23;3.10;70.20
16503;DHT22;53067;48.114;11.694;2023-03-01T03:46:50;3.10;70.10
16503;DHT22;53067;48.114;11.694;2023-03-01T03:49:17;3.20;69.90
16503;DHT22;53067;48.114;11.694;2023-03-01T03:51:45;3.20;70.00
16503;DHT22;53067;48.114;11.694;2023-03-01T03:54:13;3.20;70.00
16503;DHT22;53067;48.114;11.694;2023-03-01T03:56:40;3.20;70.10
16503;DHT22;53067;48.114;11.694;2023-03-01T03:59:10;3.20;70.30
16503;DHT22;53067;48.114;11.694;2023-03-01T04:01:37;3.20;70.20
16503;DHT22;53067;48.114;11.694;2023-03-01T04:04:05;3.10;70.10
16503;DHT22;53067;48.114;11.694;2023-03-01T04:06:34;3.10;70.10
16503;DHT22;53067;48.114;11.694;2023-03-01T04:09:02;3.10;70.20
16503;DHT22;53067;48.114;11.694;2023-03-01T04:11:30;3.10;69.50
16503;DHT22;53067;48.114;11.694;2023-03-01T04:14:06;3.10;70.00
16503;DHT22;53067;48.114;11.694;2023-03-01T04:16:33;3.10;69.40
16503;DHT22;53067;48.114;11.694;2023-03-01T04:19:10;3.00;69.50
16503;DHT22;53067;48.114;11.694;2023-03-01T04:21:37;3.00;69.50
16503;DHT22;53067;48.114;11.694;2023-03-01T04:24:05;3.00;70.00
16503;DHT22;53067;48.114;11.694;2023-03-01T04:26:33;3.00;69.60
16503;DHT22;53067;48.114;11.694;2023-03-01T04:29:00;3.00;70.00
16503;DHT22;53067;48.114;11.694;2023-03-01T04:31:28;3.00;70.20
16503;DHT22;53067;48.114;11.694;2023-03-01T04:33:56;3.00;70.30
16503;DHT22;53067;48.114;11.694;2023-03-01T04:36:26;3.00;70.20
16503;DHT22;53067;48.114;11.694;2023-03-01T04:38:55;3.00;70.20
16503;DHT22;53067;48.114;11.694;2023-03-01T04:41:24;3.00;70.40
16503;DHT22;53067;48.114;11.694;2023-03-01T04:43:52;3.00;70.40
16503;DHT22;53067;48.114;11.694;2023-03-01T04:46:21;3.00;70.10
16503;DHT22;53067;48.114;11.694;2023-03-01T04:48:49;3.00;70.00
16503;DHT22;53067;48.114;11.694;2023-03-01T04:51:16;3.00;70.00
16503;DHT22;53067;48.114;11.694;2023-03-01T04:53:44;3.00;69.90
16503;DHT22;53067;48.114;11.694;2023-03-01T04:56:13;2.90;69.90
16503;DHT22;53067;48.114;11.694;2023-03-01T04:58:41;2.90;69.80
16503;DHT22;53067;48.114;11.694;2023-03-01T05:01:18;2.90;70.00
16503;DHT22;53067;48.114;11.694;2023-03-01T05:03:51;2.90;70.20
16503;DHT22;53067;48.114;11.694;2023-03-01T05:06:20;2.90;70.20
16503;DHT22;53067;48.114;11.694;2023-03-01T05:08:48;2.80;70.40
16503;DHT22;53067;48.114;11.694;2023-03-01T05:11:15;2.80;70.70
16503;DHT22;53067;48.114;11.694;2023-03-01T05:13:43;2.80;70.70
16503;DHT22;53067;48.114;11.694;2023-03-01T05:16:10;2.70;70.80
16503;DHT22;53067;48.114;11.694;2023-03-01T05:18:38;2.70;70.60
16503;DHT22;53067;48.114;11.694;2023-03-01T05:21:09;2.70;70.70
16503;DHT22;53067;48.114;11.694;2023-03-01T05:23:37;2.70;70.80
16503;DHT22;53067;48.114;11.694;2023-03-01T05:26:06;2.70;70.90
16503;DHT22;53067;48.114;11.694;2023-03-01T05:28:34;2.70;70.70
16503;DHT22;53067;48.114;11.694;2023-03-01T05:31:02;2.70;71.00
16503;DHT22;53067;48.114;11.694;2023-03-01T05:33:29;2.70;70.90
16503;DHT22;53067;48.114;11.694;2023-03-01T05:35:59;2.60;71.10
16503;DHT22;53067;48.114;11.694;2023-03-01T05:38:27;2.60;70.70
16503;DHT22;53067;48.114;11.694;2023-03-01T05:40:55;2.60;70.60
16503;DHT22;53067;48.114;11.694;2023-03-01T05:43:22;2.70;71.10
16503;DHT22;53067;48.114;11.694;2023-03-01T05:45:50;2.60;70.50
16503;DHT22;53067;48.114;11.694;2023-03-01T05:48:17;2.60;70.60
16503;DHT22;53067;48.114;11.694;2023-03-01T05:50:46;2.60;70.20
16503;DHT22;53067;48.114;11.694;2023-03-01T05:53:16;2.50;70.30
16503;DHT22;53067;48.114;11.694;2023-03-01T05:55:45;2.50;70.30
16503;DHT22;53067;48.114;11.694;2023-03-01T05:58:19;2.50;70.50
16503;DHT22;53067;48.114;11.694;2023-03-01T06:00:45;2.50;70.50
16503;DHT22;53067;48.114;11.694;2023-03-01T06:03:15;2.40;70.50
16503;DHT22;53067;48.114;11.694;2023-03-01T06:05:44;2.40;70.50
16503;DHT22;53067;48.114;11.694;2023-03-01T06:08:12;2.40;70.70
16503;DHT22;53067;48.114;11.694;2023-03-01T06:10:40;2.40;70.70
16503;DHT22;53067;48.114;11.694;2023-03-01T06:13:08;2.40;70.80
16503;DHT22;53067;48.114;11.694;2023-03-01T06:15:35;2.40;70.70
16503;DHT22;53067;48.114;11.694;2023-03-01T06:18:03;2.40;71.00
16503;DHT22;53067;48.114;11.694;2023-03-01T06:20:31;2.40;71.00
16503;DHT22;53067;48.114;11.694;2023-03-01T06:22:58;2.40;70.80
16503;DHT22;53067;48.114;11.694;2023-03-01T06:25:27;2.40;70.50
16503;DHT22;53067;48.114;11.694;2023-03-01T06:27:54;2.50;70.50
16503;DHT22;53067;48.114;11.694;2023-03-01T06:30:24;2.50;70.50
16503;DHT22;53067;48.114;11.694;2023-03-01T06:32:52;2.50;70.50
16503;DHT22;53067;48.114;11.694;2023-03-01T06:35:21;2.50;70.40
16503;DHT22;53067;48.114;11.694;2023-03-01T06:37:49;2.50;70.70
16503;DHT22;53067;48.114;11.694;2023-03-01T06:40:16;2.50;70.80
16503;DHT22;53067;48.114;11.694;2023-03-01T06:42:47;2.50;70.80
16503;DHT22;53067;48.114;11.694;2023-03-01T06:45:19;2.50;70.90
16503;DHT22;53067;48.114;11.694;2023-03-01T06:47:48;2.50;70.80
16503;DHT22;53067;48.114;11.694;2023-03-01T06:50:17;2.50;70.90
16503;DHT22;53067;48.114;11.694;2023-03-01T06:52:45;2.50;70.80
16503;DHT22;53067;48.114;11.694;2023-03-01T06:55:13;2.50;70.80
16503;DHT22;53067;48.114;11.694;2023-03-01T06:57:40;2.50;70.90
16503;DHT22;53067;48.114;11.694;2023-03-01T07:00:10;2.50;70.90
16503;DHT22;53067;48.114;11.694;2023-03-01T07:02:38;2.50;70.80
16503;DHT22;53067;48.114;11.694;2023-03-01T07:05:05;2.50;70.50
16503;DHT22;53067;48.114;11.694;2023-03-01T07:07:33;2.50;70.50
16503;DHT22;53067;48.114;11.694;2023-03-01T07:10:01;2.50;70.70
16503;DHT22;53067;48.114;11.694;2023-03-01T07:12:28;2.50;70.80
16503;DHT22;53067;48.114;11.694;2023-03-01T07:14:56;2.60;70.80
16503;DHT22;53067;48.114;11.694;2023-03-01T07:17:23;2.60;70.40
16503;DHT22;53067;48.114;11.694;2023-03-01T07:19:51;2.70;70.30
16503;DHT22;53067;48.114;11.694;2023-03-01T07:22:18;2.70;70.20
16503;DHT22;53067;48.114;11.694;2023-03-01T07:24:46;2.70;70.30
16503;DHT22;53067;48.114;11.694;2023-03-01T07:27:13;2.70;70.20
16503;DHT22;53067;48.114;11.694;2023-03-01T07:29:41;2.70;70.10
16503;DHT22;53067;48.114;11.694;2023-03-01T07:32:09;2.70;69.90
16503;DHT22;53067;48.114;11.694;2023-03-01T07:34:38;2.80;70.20
16503;DHT22;53067;48.114;11.694;2023-03-01T07:37:05;2.80;70.10
16503;DHT22;53067;48.114;11.694;2023-03-01T07:39:33;2.80;70.10
16503;DHT22;53067;48.114;11.694;2023-03-01T07:42:00;2.80;70.10
16503;DHT22;53067;48.114;11.694;2023-03-01T07:44:28;2.80;70.50
16503;DHT22;53067;48.114;11.694;2023-03-01T07:46:55;2.80;70.00
16503;DHT22;53067;48.114;11.694;2023-03-01T07:49:24;2.80;70.10
16503;DHT22;53067;48.114;11.694;2023-03-01T07:51:54;2.80;69.90
16503;DHT22;53067;48.114;11.694;2023-03-01T07:54:21;2.80;69.60
16503;DHT22;53067;48.114;11.694;2023-03-01T07:56:49;2.80;69.70
16503;DHT22;53067;48.114;11.694;2023-03-01T07:59:17;2.80;69.70
16503;DHT22;53067;48.114;11.694;2023-03-01T08:01:44;2.80;69.70
16503;DHT22;53067;48.114;11.694;2023-03-01T08:04:12;2.80;69.30
16503;DHT22;53067;48.114;11.694;2023-03-01T08:06:39;2.90;69.40
16503;DHT22;53067;48.114;11.694;2023-03-01T08:09:07;2.90;69.50
16503;DHT22;53067;48.114;11.694;2023-03-01T08:11:35;3.00;69.10
16503;DHT22;53067;48.114;11.694;2023-03-01T08:14:02;3.00;68.90
16503;DHT22;53067;48.114;11.694;2023-03-01T08:16:30;3.00;68.90
16503;DHT22;53067;48.114;11.694;2023-03-01T08:19:07;3.00;68.80
16503;DHT22;53067;48.114;11.694;2023-03-01T08:21:35;3.10;69.00
16503;DHT22;53067;48.114;11.694;2023-03-01T08:24:04;3.10;68.30
16503;DHT22;53067;48.114;11.694;2023-03-01T08:26:33;3.10;68.50
16503;DHT22;53067;48.114;11.694;2023-03-01T08:29:01;3.20;68.60
16503;DHT22;53067;48.114;11.694;2023-03-01T08:31:35;3.20;68.50
16503;DHT22;53067;48.114;11.694;2023-03-01T08:34:01;3.20;69.20
16503;DHT22;53067;48.114;11.694;2023-03-01T08:36:37;3.20;68.20
16503;DHT22;53067;48.114;11.694;2023-03-01T08:39:07;3.30;68.10
16503;DHT22;53067;48.114;11.694;2023-03-01T08:41:35;3.30;67.90
16503;DHT22;53067;48.114;11.694;2023-03-01T08:44:03;3.40;68.00
16503;DHT22;53067;48.114;11.694;2023-03-01T08:46:33;3.40;68.00
16503;DHT22;53067;48.114;11.694;2023-03-01T08:49:11;3.40;68.00
16503;DHT22;53067;48.114;11.694;2023-03-01T08:51:35;3.40;67.80
16503;DHT22;53067;48.114;11.694;2023-03-01T08:54:09;3.50;67.50
16503;DHT22;53067;48.114;11.694;2023-03-01T08:56:36;3.60;67.50
16503;DHT22;53067;48.114;11.694;2023-03-01T08:59:04;3.70;67.10
16503;DHT22;53067;48.114;11.694;2023-03-01T09:01:31;3.70;66.80
16503;DHT22;53067;48.114;11.694;2023-03-01T09:03:59;3.60;66.80
16503;DHT22;53067;48.114;11.694;2023-03-01T09:06:29;3.70;67.80
16503;DHT22;53067;48.114;11.694;2023-03-01T09:08:57;3.70;66.80
16503;DHT22;53067;48.114;11.694;2023-03-01T09:11:24;3.70;66.80
16503;DHT22;53067;48.114;11.694;2023-03-01T09:13:52;3.70;66.80
16503;DHT22;53067;48.114;11.694;2023-03-01T09:16:21;3.70;66.80
16503;DHT22;53067;48.114;11.694;2023-03-01T09:18:54;3.80;66.60
16503;DHT22;53067;48.114;11.694;2023-03-01T09:21:20;3.80;67.00
16503;DHT22;53067;48.114;11.694;2023-03-01T09:23:49;3.80;66.80
16503;DHT22;53067;48.114;11.694;2023-03-01T09:26:19;3.90;66.30
16503;DHT22;53067;48.114;11.694;2023-03-01T09:28:50;3.90;66.40
16503;DHT22;53067;48.114;11.694;2023-03-01T09:31:20;3.90;66.60
16503;DHT22;53067;48.114;11.694;2023-03-01T09:33:50;3.90;67.00
16503;DHT22;53067;48.114;11.694;2023-03-01T09:36:21;3.90;66.80
16503;DHT22;53067;48.114;11.694;2023-03-01T09:38:50;4.00;66.50
16503;DHT22;53067;48.114;11.694;2023-03-01T09:41:26;4.00;66.80
16503;DHT22;53067;48.114;11.694;2023-03-01T09:43:55;4.10;67.10
16503;DHT22;53067;48.114;11.694;2023-03-01T09:46:25;4.10;66.40
16503;DHT22;53067;48.114;11.694;2023-03-01T09:49:02;4.00;66.70
16503;DHT22;53067;48.114;11.694;2023-03-01T09:51:36;4.10;66.80
16503;DHT22;53067;48.114;11.694;2023-03-01T09:54:05;4.20;66.30
16503;DHT22;53067;48.114;11.694;2023-03-01T10:02:05;4.30;66.70
16503;DHT22;53067;48.114;11.694;2023-03-01T10:04:51;4.40;66.30
16503;DHT22;53067;48.114;11.694;2023-03-01T10:10:07;4.50;65.30
16503;DHT22;53067;48.114;11.694;2023-03-01T10:12:40;4.50;65.10
16503;DHT22;53067;48.114;11.694;2023-03-01T10:15:18;4.50;65.60
16503;DHT22;53067;48.114;11.694;2023-03-01T10:18:00;4.60;65.20
16503;DHT22;53067;48.114;11.694;2023-03-01T10:23:04;4.70;65.00
16503;DHT22;53067;48.114;11.694;2023-03-01T10:31:05;5.60;64.40
16503;DHT22;53067;48.114;11.694;2023-03-01T10:33:37;6.20;62.50
16503;DHT22;53067;48.114;11.694;2023-03-01T10:36:07;6.70;60.40
16503;DHT22;53067;48.114;11.694;2023-03-01T10:38:56;7.10;59.70
16503;DHT22;53067;48.114;11.694;2023-03-01T10:41:26;7.40;59.40
16503;DHT22;53067;48.114;11.694;2023-03-01T10:43:56;7.70;57.40
16503;DHT22;53067;48.114;11.694;2023-03-01T10:46:32;7.70;56.20
16503;DHT22;53067;48.114;11.694;2023-03-01T10:49:21;7.80;56.20
16503;DHT22;53067;48.114;11.694;2023-03-01T10:52:25;7.80;55.90
16503;DHT22;53067;48.114;11.694;2023-03-01T10:54:32;8.10;55.50
16503;DHT22;53067;48.114;11.694;2023-03-01T10:57:05;8.50;54.50
16503;DHT22;53067;48.114;11.694;2023-03-01T10:59:34;9.00;52.80
16503;DHT22;53067;48.114;11.694;2023-03-01T11:08:02;11.40;48.10
16503;DHT22;53067;48.114;11.694;2023-03-01T11:10:28;12.40;44.40
16503;DHT22;53067;48.114;11.694;2023-03-01T11:13:16;13.10;43.30
16503;DHT22;53067;48.114;11.694;2023-03-01T11:16:02;13.80;41.80
16503;DHT22;53067;48.114;11.694;2023-03-01T11:18:31;14.60;39.60
16503;DHT22;53067;48.114;11.694;2023-03-01T11:20:59;15.10;37.30
16503;DHT22;53067;48.114;11.694;2023-03-01T11:23:29;15.20;37.80
16503;DHT22;53067;48.114;11.694;2023-03-01T11:26:00;15.30;36.70
16503;DHT22;53067;48.114;11.694;2023-03-01T11:28:29;15.60;36.10
16503;DHT22;53067;48.114;11.694;2023-03-01T11:31:05;15.90;35.40
16503;DHT22;53067;48.114;11.694;2023-03-01T11:36:44;16.30;34.70
16503;DHT22;53067;48.114;11.694;2023-03-01T11:44:54;16.80;34.00
16503;DHT22;53067;48.114;11.694;2023-03-01T11:47:52;17.30;33.10
16503;DHT22;53067;48.114;11.694;2023-03-01T11:56:12;18.20;32.70
16503;DHT22;53067;48.114;11.694;2023-03-01T12:04:47;18.80;30.60
16503;DHT22;53067;48.114;11.694;2023-03-01T12:07:24;19.00;30.60
16503;DHT22;53067;48.114;11.694;2023-03-01T12:10:01;19.20;29.20
16503;DHT22;53067;48.114;11.694;2023-03-01T12:12:36;19.30;29.20
16503;DHT22;53067;48.114;11.694;2023-03-01T12:15:19;19.50;29.30
16503;DHT22;53067;48.114;11.694;2023-03-01T12:21:26;20.20;29.80
16503;DHT22;53067;48.114;11.694;2023-03-01T12:29:08;19.60;28.30
16503;DHT22;53067;48.114;11.694;2023-03-01T12:34:55;18.50;30.20
16503;DHT22;53067;48.114;11.694;2023-03-01T12:37:45;19.10;30.30
16503;DHT22;53067;48.114;11.694;2023-03-01T12:40:31;19.80;28.70
16503;DHT22;53067;48.114;11.694;2023-03-01T12:43:22;20.70;28.40
16503;DHT22;53067;48.114;11.694;2023-03-01T12:50:20;21.30;26.70
16503;DHT22;53067;48.114;11.694;2023-03-01T12:51:14;20.90;27.40
16503;DHT22;53067;48.114;11.694;2023-03-01T12:53:47;20.30;27.90
16503;DHT22;53067;48.114;11.694;2023-03-01T12:56:27;19.80;28.20
16503;DHT22;53067;48.114;11.694;2023-03-01T12:59:02;19.40;28.90
16503;DHT22;53067;48.114;11.694;2023-03-01T13:04:20;18.40;30.00
16503;DHT22;53067;48.114;11.694;2023-03-01T13:09:39;18.20;31.10
16503;DHT22;53067;48.114;11.694;2023-03-01T13:18:24;17.80;35.30
16503;DHT22;53067;48.114;11.694;2023-03-01T13:26:11;18.20;32.90
16503;DHT22;53067;48.114;11.694;2023-03-01T13:28:49;18.30;32.60
16503;DHT22;53067;48.114;11.694;2023-03-01T13:33:49;18.20;30.80
16503;DHT22;53067;48.114;11.694;2023-03-01T13:39:04;18.00;32.10
16503;DHT22;53067;48.114;11.694;2023-03-01T13:41:49;18.40;31.50
16503;DHT22;53067;48.114;11.694;2023-03-01T13:44:36;18.70;30.70
16503;DHT22;53067;48.114;11.694;2023-03-01T13:49:44;18.60;30.70
16503;DHT22;53067;48.114;11.694;2023-03-01T13:52:40;18.30;30.90
16503;DHT22;53067;48.114;11.694;2023-03-01T13:55:23;18.00;31.30
16503;DHT22;53067;48.114;11.694;2023-03-01T13:57:55;17.50;32.80
16503;DHT22;53067;48.114;11.694;2023-03-01T14:03:11;16.80;34.40
16503;DHT22;53067;48.114;11.694;2023-03-01T14:05:41;16.30;47.60
16503;DHT22;53067;48.114;11.694;2023-03-01T14:08:21;16.00;50.40
16503;DHT22;53067;48.114;11.694;2023-03-01T14:11:07;15.60;36.70
16503;DHT22;53067;48.114;11.694;2023-03-01T14:13:53;15.10;64.10
16503;DHT22;53067;48.114;11.694;2023-03-01T14:18:47;14.70;41.10
16503;DHT22;53067;48.114;11.694;2023-03-01T14:21:16;14.30;39.00
16503;DHT22;53067;48.114;11.694;2023-03-01T14:23:43;14.10;39.50
16503;DHT22;53067;48.114;11.694;2023-03-01T14:26:13;13.90;40.30
16503;DHT22;53067;48.114;11.694;2023-03-01T14:28:42;13.70;41.30
16503;DHT22;53067;48.114;11.694;2023-03-01T14:31:38;13.40;41.40
16503;DHT22;53067;48.114;11.694;2023-03-01T14:34:03;13.20;50.30
16503;DHT22;53067;48.114;11.694;2023-03-01T14:36:33;12.90;50.50
16503;DHT22;53067;48.114;11.694;2023-03-01T14:39:01;12.60;44.20
16503;DHT22;53067;48.114;11.694;2023-03-01T14:41:33;12.40;44.80
16503;DHT22;53067;48.114;11.694;2023-03-01T14:44:04;12.20;44.80
16503;DHT22;53067;48.114;11.694;2023-03-01T14:51:42;11.50;46.70
16503;DHT22;53067;48.114;11.694;2023-03-01T14:54:25;11.20;47.40
16503;DHT22;53067;48.114;11.694;2023-03-01T14:56:57;11.10;48.00
16503;DHT22;53067;48.114;11.694;2023-03-01T14:59:23;10.90;48.50
16503;DHT22;53067;48.114;11.694;2023-03-01T15:01:53;10.70;48.90
16503;DHT22;53067;48.114;11.694;2023-03-01T15:04:23;10.50;49.30
16503;DHT22;53067;48.114;11.694;2023-03-01T15:06:52;10.30;49.90
16503;DHT22;53067;48.114;11.694;2023-03-01T15:09:21;10.20;50.60
16503;DHT22;53067;48.114;11.694;2023-03-01T15:11:49;10.10;50.90
16503;DHT22;53067;48.114;11.694;2023-03-01T15:14:43;9.90;51.30
16503;DHT22;53067;48.114;11.694;2023-03-01T15:17:31;9.90;51.70
16503;DHT22;53067;48.114;11.694;2023-03-01T15:20:03;9.70;52.10
16503;DHT22;53067;48.114;11.694;2023-03-01T15:22:31;9.70;52.60
16503;DHT22;53067;48.114;11.694;2023-03-01T15:24:59;9.60;57.30
16503;DHT22;53067;48.114;11.694;2023-03-01T15:27:27;9.70;57.90
16503;DHT22;53067;48.114;11.694;2023-03-01T15:30:00;9.70;57.60
16503;DHT22;53067;48.114;11.694;2023-03-01T15:32:37;9.70;57.90
16503;DHT22;53067;48.114;11.694;2023-03-01T15:35:45;9.60;58.50
16503;DHT22;53067;48.114;11.694;2023-03-01T15:38:25;9.60;56.40
16503;DHT22;53067;48.114;11.694;2023-03-01T15:41:05;9.50;57.00
16503;DHT22;53067;48.114;11.694;2023-03-01T15:43:47;9.40;58.00
16503;DHT22;53067;48.114;11.694;2023-03-01T15:46:22;9.40;58.00
16503;DHT22;53067;48.114;11.694;2023-03-01T15:48:48;9.40;57.90
16503;DHT22;53067;48.114;11.694;2023-03-01T15:51:22;9.30;57.10
16503;DHT22;53067;48.114;11.694;2023-03-01T15:53:51;9.20;58.40
16503;DHT22;53067;48.114;11.694;2023-03-01T15:56:19;9.10;60.10
16503;DHT22;53067;48.114;11.694;2023-03-01T15:58:48;9.00;60.60
16503;DHT22;53067;48.114;11.694;2023-03-01T16:01:17;9.00;55.70
16503;DHT22;53067;48.114;11.694;2023-03-01T16:03:45;8.90;55.50
16503;DHT22;53067;48.114;11.694;2023-03-01T16:06:13;8.90;55.70
16503;DHT22;53067;48.114;11.694;2023-03-01T16:08:40;8.80;55.90
16503;DHT22;53067;48.114;11.694;2023-03-01T16:11:17;8.80;56.10
16503;DHT22;53067;48.114;11.694;2023-03-01T16:13:41;8.80;56.30
16503;DHT22;53067;48.114;11.694;2023-03-01T16:16:10;8.80;56.40
16503;DHT22;53067;48.114;11.694;2023-03-01T16:18:44;8.70;56.40
16503;DHT22;53067;48.114;11.694;2023-03-01T16:21:23;8.60;56.60
16503;DHT22;53067;48.114;11.694;2023-03-01T16:23:52;8.60;56.80
16503;DHT22;53067;48.114;11.694;2023-03-01T16:26:19;8.50;57.00
16503;DHT22;53067;48.114;11.694;2023-03-01T16:28:47;8.50;57.30
16503;DHT22;53067;48.114;11.694;2023-03-01T16:31:17;8.50;57.50
16503;DHT22;53067;48.114;11.694;2023-03-01T16:33:47;8.40;57.60
16503;DHT22;53067;48.114;11.694;2023-03-01T16:36:18;8.40;57.80
16503;DHT22;53067;48.114;11.694;2023-03-01T16:38:46;8.40;57.90
16503;DHT22;53067;48.114;11.694;2023-03-01T16:41:17;8.30;58.00
16503;DHT22;53067;48.114;11.694;2023-03-01T16:43:45;8.20;58.40
16503;DHT22;53067;48.114;11.694;2023-03-01T16:46:20;8.20;58.60
16503;DHT22;53067;48.114;11.694;2023-03-01T16:48:45;8.10;58.80
16503;DHT22;53067;48.114;11.694;2023-03-01T16:51:12;8.10;59.00
16503;DHT22;53067;48.114;11.694;2023-03-01T16:53:40;8.00;59.30
16503;DHT22;53067;48.114;11.694;2023-03-01T16:56:10;7.90;59.60
16503;DHT22;53067;48.114;11.694;2023-03-01T16:58:39;7.90;60.10
16503;DHT22;53067;48.114;11.694;2023-03-01T17:01:13;7.70;60.40
16503;DHT22;53067;48.114;11.694;2023-03-01T17:03:38;7.60;63.90
16503;DHT22;53067;48.114;11.694;2023-03-01T17:06:10;7.40;61.90
16503;DHT22;53067;48.114;11.694;2023-03-01T17:08:37;7.40;62.90
16503;DHT22;53067;48.114;11.694;2023-03-01T17:11:11;7.30;65.30
16503;DHT22;53067;48.114;11.694;2023-03-01T17:13:39;7.10;72.80
16503;DHT22;53067;48.114;11.694;2023-03-01T17:16:09;7.00;64.60
16503;DHT22;53067;48.114;11.694;2023-03-01T17:18:37;7.00;73.80
16503;DHT22;53067;48.114;11.694;2023-03-01T17:21:05;6.90;70.40
16503;DHT22;53067;48.114;11.694;2023-03-01T17:23:35;6.80;72.40
16503;DHT22;53067;48.114;11.694;2023-03-01T17:26:03;6.70;69.40
16503;DHT22;53067;48.114;11.694;2023-03-01T17:28:33;6.60;81.80
16503;DHT22;53067;48.114;11.694;2023-03-01T17:31:04;6.40;64.40
16503;DHT22;53067;48.114;11.694;2023-03-01T17:33:32;6.40;64.70